createdAt,value
2023-04-06T00:04:24.014Z,5.40
2023-04-06T00:09:27.402Z,5.17
2023-04-06T00:14:32.112Z,5.00
2023-04-06T00:19:35.473Z,3.80
2023-04-06T00:24:38.964Z,5.00
2023-04-06T00:29:43.756Z,5.40
2023-04-06T00:34:47.078Z,5.70
2023-04-06T00:39:53.132Z,6.27
2023-04-06T00:44:59.938Z,6.37
2023-04-06T00:50:04.368Z,6.13
2023-04-06T00:55:08.758Z,5.87
2023-04-06T01:00:15.092Z,6.63
2023-04-06T01:05:18.613Z,6.50
2023-04-06T01:10:28.105Z,5.77
2023-04-06T01:15:34.579Z,6.60
2023-04-06T01:20:38.064Z,6.20
2023-04-06T01:25:42.910Z,5.77
2023-04-06T01:30:46.639Z,6.03
2023-04-06T01:35:50.022Z,6.63
2023-04-06T01:40:55.742Z,5.63
2023-04-06T01:46:00.196Z,6.57
2023-04-06T01:51:04.797Z,6.20
2023-04-06T01:56:09.778Z,6.27
2023-04-06T02:01:13.255Z,7.00
2023-04-06T02:06:16.744Z,5.80
2023-04-06T02:11:21.592Z,5.90
2023-04-06T02:16:24.941Z,6.27
2023-04-06T02:21:28.414Z,6.30
2023-04-06T02:26:33.637Z,5.97
2023-04-06T02:31:37.038Z,6.87
2023-04-06T02:36:40.337Z,6.17
2023-04-06T02:41:45.116Z,5.80
2023-04-06T02:46:48.511Z,6.13
2023-04-06T02:51:51.880Z,6.23
2023-04-06T02:56:56.575Z,6.30
2023-04-06T03:01:59.952Z,6.40
2023-04-06T03:07:03.246Z,6.60
2023-04-06T03:12:09.948Z,6.93
2023-04-06T03:17:13.728Z,6.47
2023-04-06T03:22:17.029Z,6.53
2023-04-06T03:27:21.724Z,6.87
2023-04-06T03:32:28.152Z,6.47
2023-04-06T03:37:31.463Z,6.20
2023-04-06T03:42:36.250Z,5.70
2023-04-06T03:47:39.544Z,6.80
2023-04-06T03:52:42.836Z,6.70
2023-04-06T03:57:47.664Z,6.90
2023-04-06T04:02:51.147Z,7.10
2023-04-06T04:07:54.752Z,6.40
2023-04-06T04:12:59.474Z,6.00
2023-04-06T04:18:02.935Z,5.97
2023-04-06T04:23:06.299Z,5.73
2023-04-06T04:28:14.016Z,6.10
2023-04-06T04:33:17.338Z,6.47
2023-04-06T04:38:20.757Z,7.03
2023-04-06T04:43:25.485Z,7.50
2023-04-06T04:48:28.795Z,6.70
2023-04-06T04:53:32.096Z,6.60
2023-04-06T04:58:36.981Z,7.47
2023-04-06T05:03:40.916Z,7.17
2023-04-06T05:08:44.688Z,6.43
2023-04-06T05:13:49.459Z,6.90
2023-04-06T05:18:53.175Z,6.80
2023-04-06T05:23:57.858Z,7.10
2023-04-06T05:29:03.083Z,7.67
2023-04-06T05:34:06.487Z,6.73
2023-04-06T05:39:10.130Z,7.17
2023-04-06T05:44:15.277Z,6.27
2023-04-06T05:49:28.163Z,6.60
2023-04-06T05:54:31.487Z,6.70
2023-04-06T05:59:36.896Z,6.47
2023-04-06T06:04:42.638Z,7.73
2023-04-06T06:09:46.295Z,6.53
2023-04-06T06:14:51.315Z,7.07
2023-04-06T06:20:02.715Z,6.30
2023-04-06T06:25:06.759Z,6.13
2023-04-06T06:30:17.458Z,6.30
2023-04-06T06:35:23.132Z,6.27
2023-04-06T06:40:28.373Z,6.53
2023-04-06T06:45:37.188Z,4.23
2023-04-06T06:50:40.941Z,4.03
2023-04-06T06:55:45.511Z,3.70
2023-04-06T07:00:55.605Z,4.13
2023-04-06T07:06:00.072Z,4.55
2023-04-06T07:11:06.890Z,4.10
2023-04-06T07:16:13.288Z,4.68
2023-04-06T07:21:18.148Z,4.65
2023-04-06T07:26:21.412Z,5.43
2023-04-06T07:31:26.316Z,6.22
2023-04-06T07:36:29.747Z,5.70
2023-04-06T07:41:33.148Z,6.10
2023-04-06T07:46:38.938Z,6.85
2023-04-06T07:51:42.743Z,6.20
2023-04-06T07:56:46.215Z,6.25
2023-04-06T08:01:51.494Z,7.97
2023-04-06T08:06:55.885Z,6.70
2023-04-06T08:11:59.741Z,6.93
2023-04-06T08:17:06.371Z,6.47
2023-04-06T08:22:10.204Z,7.28
2023-04-06T08:27:15.756Z,6.55
2023-04-06T08:32:21.646Z,6.85
2023-04-06T08:37:26.906Z,6.82
2023-04-06T08:42:33.957Z,6.43
2023-04-06T08:47:39.667Z,6.88
2023-04-06T08:52:44.888Z,6.35
2023-04-06T08:57:48.991Z,6.15
2023-04-06T09:02:57.281Z,6.10
2023-04-06T09:08:00.955Z,6.28
2023-04-06T09:13:12.376Z,6.53
2023-04-06T09:18:31.085Z,7.00
2023-04-06T09:23:35.232Z,6.90
2023-04-06T09:28:56.000Z,6.47
2023-04-06T09:34:04.391Z,6.97
2023-04-06T09:39:08.818Z,7.43
2023-04-06T09:44:15.885Z,7.65
2023-04-06T09:49:22.411Z,7.82
2023-04-06T09:54:30.798Z,7.82
2023-04-06T09:59:40.819Z,6.28
2023-04-06T10:04:52.299Z,6.20
2023-04-06T10:09:58.068Z,2.72
2023-04-06T10:15:01.627Z,2.67
2023-04-06T10:20:12.848Z,3.05
2023-04-06T10:25:16.373Z,2.78
2023-04-06T10:30:21.409Z,2.95
2023-04-06T10:35:39.653Z,2.60
2023-04-06T10:40:47.343Z,2.90
2023-04-06T10:45:58.375Z,2.83
2023-04-06T10:51:05.055Z,3.13
2023-04-06T10:56:14.097Z,3.20
2023-04-06T11:01:19.650Z,3.45
2023-04-06T11:06:25.406Z,3.80
2023-04-06T11:11:29.597Z,3.40
2023-04-06T11:16:34.807Z,3.80
2023-04-06T11:21:41.341Z,3.45
2023-04-06T11:26:46.943Z,3.55
2023-04-06T11:31:55.733Z,3.22
2023-04-06T11:37:04.558Z,3.78
2023-04-06T11:42:09.242Z,3.65
2023-04-06T11:47:15.791Z,2.95
2023-04-06T11:52:22.985Z,2.45
2023-04-06T11:57:26.813Z,2.80
2023-04-06T12:02:30.227Z,2.65
2023-04-06T12:07:35.720Z,3.03
2023-04-06T12:12:38.993Z,2.67
2023-04-06T12:17:43.733Z,3.17
2023-04-06T12:22:49.345Z,3.30
2023-04-06T12:27:53.154Z,2.95
2023-04-06T12:32:58.791Z,2.58
2023-04-06T12:38:04.288Z,2.78
2023-04-06T12:43:07.608Z,3.03
2023-04-06T12:48:10.911Z,3.17
2023-04-06T12:53:15.590Z,2.50
2023-04-06T12:58:19.537Z,2.67
2023-04-06T13:03:23.582Z,2.20
2023-04-06T13:08:29.403Z,1.80
2023-04-06T13:13:32.997Z,2.20
2023-04-06T13:18:42.599Z,2.13
2023-04-06T13:23:47.374Z,2.30
2023-04-06T13:28:50.629Z,1.90
2023-04-06T13:33:53.967Z,1.77
2023-04-06T13:38:58.651Z,1.85
2023-04-06T13:44:03.831Z,2.33
2023-04-06T13:49:07.431Z,1.50
2023-04-06T13:54:12.199Z,1.80
2023-04-06T13:59:15.841Z,2.10
2023-04-06T14:04:19.546Z,1.90
2023-04-06T14:09:24.364Z,2.03
2023-04-06T14:14:28.093Z,2.60
2023-04-06T14:19:31.360Z,2.38
2023-04-06T14:24:36.895Z,2.15
2023-04-06T14:29:40.522Z,2.30
2023-04-06T14:34:44.768Z,2.33
2023-04-06T14:39:49.454Z,2.85
2023-04-06T14:44:54.747Z,3.35
2023-04-06T14:49:58.747Z,4.13
2023-04-06T14:55:06.473Z,3.70
2023-04-06T15:00:11.286Z,2.45
2023-04-06T15:05:15.104Z,3.40
2023-04-06T15:10:21.107Z,2.45
2023-04-06T15:15:25.271Z,2.10
2023-04-06T15:20:28.516Z,2.22
2023-04-06T15:25:34.198Z,2.30
2023-04-06T15:30:37.497Z,2.20
2023-04-06T15:35:43.091Z,1.58
2023-04-06T15:40:49.509Z,1.77
2023-04-06T15:45:53.916Z,1.50
2023-04-06T15:50:59.236Z,2.05
2023-04-06T15:56:05.442Z,2.10
2023-04-06T16:01:16.429Z,2.20
2023-04-06T16:06:19.922Z,1.95
2023-04-06T16:11:24.754Z,2.38
2023-04-06T16:16:28.321Z,1.70
2023-04-06T16:21:31.694Z,1.60
2023-04-06T16:26:37.053Z,1.75
2023-04-06T16:31:41.568Z,1.85
2023-04-06T16:36:46.051Z,2.33
2023-04-06T16:41:50.938Z,1.80
2023-04-06T16:46:54.255Z,1.95
2023-04-06T16:52:03.433Z,1.90
2023-04-06T16:57:08.337Z,1.88
2023-04-06T17:02:11.952Z,1.83
2023-04-06T17:07:16.558Z,1.70
2023-04-06T17:12:22.189Z,1.55
2023-04-06T17:17:25.761Z,1.75
2023-04-06T17:22:29.142Z,1.58
2023-04-06T17:27:34.010Z,1.25
2023-04-06T17:32:37.446Z,1.38
2023-04-06T17:37:44.523Z,1.45
2023-04-06T17:42:49.232Z,1.30
2023-04-06T17:47:52.559Z,1.55
2023-04-06T17:52:55.829Z,1.55
2023-04-06T17:58:00.602Z,1.65
2023-04-06T18:03:04.107Z,1.77
2023-04-06T18:08:07.734Z,1.70
2023-04-06T18:13:12.485Z,1.40
2023-04-06T18:18:18.642Z,1.58
2023-04-06T18:23:22.006Z,2.50
2023-04-06T18:28:26.714Z,2.00
2023-04-06T18:33:30.200Z,2.15
2023-04-06T18:38:33.456Z,1.77
2023-04-06T18:43:39.636Z,1.33
2023-04-06T18:48:43.315Z,1.27
2023-04-06T18:54:03.465Z,1.38
2023-04-06T18:59:09.091Z,1.33
2023-04-06T19:04:12.813Z,1.98
2023-04-06T19:09:16.350Z,1.17
2023-04-06T19:14:21.192Z,1.17
2023-04-06T19:19:24.595Z,1.50
2023-04-06T19:24:28.105Z,1.17
2023-04-06T19:35:43.839Z,1.25
2023-04-06T19:40:47.257Z,1.30
2023-04-06T19:45:50.495Z,1.85
2023-04-06T19:56:23.645Z,2.20
2023-04-06T20:01:27.856Z,2.35
2023-04-06T20:06:32.761Z,2.03
2023-04-06T20:11:40.909Z,2.38
2023-04-06T20:16:44.781Z,2.50
2023-04-06T20:21:50.494Z,2.60
2023-04-06T20:26:53.828Z,2.65
2023-04-06T20:31:57.208Z,2.28
2023-04-06T20:37:02.439Z,2.25
2023-04-06T20:42:07.367Z,2.60
2023-04-06T20:47:10.869Z,2.70
2023-04-06T20:52:16.269Z,2.35
2023-04-06T20:57:19.836Z,2.53
2023-04-06T21:02:23.860Z,2.97
2023-04-06T21:07:29.016Z,2.70
2023-04-06T21:12:32.658Z,2.53
2023-04-06T21:17:48.237Z,2.60
2023-04-06T21:22:52.905Z,2.83
2023-04-06T21:27:57.043Z,3.15
2023-04-06T21:33:00.364Z,2.83
2023-04-06T21:38:05.124Z,2.72
2023-04-06T21:43:08.533Z,3.30
2023-04-06T21:48:11.875Z,3.45
2023-04-06T21:54:06.083Z,3.55
2023-04-06T21:59:10.713Z,3.60
2023-04-06T22:04:14.345Z,3.70
2023-04-06T22:09:18.118Z,3.50
2023-04-06T22:14:22.816Z,2.90
2023-04-06T22:19:26.253Z,4.22
2023-04-06T22:24:32.096Z,3.38
2023-04-06T22:29:36.834Z,3.80
2023-04-06T22:40:22.078Z,4.18
2023-04-06T22:45:26.966Z,3.88
2023-04-06T22:50:30.357Z,4.30
2023-04-06T22:55:35.381Z,4.10
2023-04-06T23:00:39.996Z,4.15
2023-04-06T23:05:43.369Z,4.55
2023-04-06T23:10:46.846Z,4.60
2023-04-06T23:15:55.427Z,4.20
2023-04-06T23:21:07.194Z,4.38
2023-04-06T23:26:10.785Z,4.78
2023-04-06T23:31:42.176Z,4.95
2023-04-06T23:37:07.977Z,4.75
2023-04-06T23:42:17.314Z,4.72
2023-04-06T23:47:58.726Z,4.50
2023-04-06T23:53:08.115Z,4.82
2023-04-06T23:58:11.808Z,4.40
